sensor_id;sensor_type;location;lat;lon;timestamp;P1;durP1;ratioP1;P2;durP2;ratioP2
19032;SDS011;9649;51.042;13.804;2023-04-03T00:01:01;2.50;;;1.40;;
19032;SDS011;9649;51.042;13.804;2023-04-03T00:06:04;5.67;;;1.87;;
19032;SDS011;9649;51.042;13.804;2023-04-03T00:11:09;4.57;;;1.40;;
19032;SDS011;9649;51.042;13.804;2023-04-03T00:16:12;4.00;;;1.40;;
19032;SDS011;9649;51.042;13.804;2023-04-03T00:21:15;3.83;;;1.37;;
19032;SDS011;9649;51.042;13.804;2023-04-03T00:26:19;4.57;;;1.90;;
19032;SDS011;9649;51.042;13.804;2023-04-03T00:31:22;2.93;;;1.50;;
19032;SDS011;9649;51.042;13.804;2023-04-03T00:36:24;5.17;;;1.50;;
19032;SDS011;9649;51.042;13.804;2023-04-03T00:41:29;3.17;;;1.40;;
19032;SDS011;9649;51.042;13.804;2023-04-03T00:46:31;2.23;;;1.20;;
19032;SDS011;9649;51.042;13.804;2023-04-03T00:51:34;2.67;;;1.17;;
19032;SDS011;9649;51.042;13.804;2023-04-03T00:56:38;6.13;;;1.50;;
19032;SDS011;9649;51.042;13.804;2023-04-03T01:01:42;6.10;;;1.47;;
19032;SDS011;9649;51.042;13.804;2023-04-03T01:06:46;5.10;;;1.50;;
19032;SDS011;9649;51.042;13.804;2023-04-03T01:11:49;4.13;;;1.40;;
19032;SDS011;9649;51.042;13.804;2023-04-03T01:16:53;4.47;;;1.93;;
19032;SDS011;9649;51.042;13.804;2023-04-03T01:22:02;4.53;;;1.57;;
19032;SDS011;9649;51.042;13.804;2023-04-03T01:27:19;4.33;;;1.50;;
19032;SDS011;9649;51.042;13.804;2023-04-03T01:32:23;2.17;;;1.30;;
19032;SDS011;9649;51.042;13.804;2023-04-03T01:37:26;7.57;;;1.47;;
19032;SDS011;9649;51.042;13.804;2023-04-03T01:42:28;5.43;;;1.60;;
19032;SDS011;9649;51.042;13.804;2023-04-03T01:47:32;5.30;;;1.80;;
19032;SDS011;9649;51.042;13.804;2023-04-03T01:52:35;3.83;;;1.40;;
19032;SDS011;9649;51.042;13.804;2023-04-03T01:57:38;3.23;;;1.57;;
19032;SDS011;9649;51.042;13.804;2023-04-03T02:02:42;4.33;;;1.70;;
19032;SDS011;9649;51.042;13.804;2023-04-03T02:07:45;7.93;;;1.80;;
19032;SDS011;9649;51.042;13.804;2023-04-03T02:12:48;4.93;;;2.10;;
19032;SDS011;9649;51.042;13.804;2023-04-03T02:17:52;4.43;;;1.50;;
19032;SDS011;9649;51.042;13.804;2023-04-03T02:22:55;5.57;;;1.50;;
19032;SDS011;9649;51.042;13.804;2023-04-03T02:27:58;4.07;;;1.30;;
19032;SDS011;9649;51.042;13.804;2023-04-03T02:33:02;6.10;;;1.67;;
19032;SDS011;9649;51.042;13.804;2023-04-03T02:38:05;3.10;;;1.47;;
19032;SDS011;9649;51.042;13.804;2023-04-03T02:43:08;3.43;;;1.50;;
19032;SDS011;9649;51.042;13.804;2023-04-03T02:48:12;3.13;;;1.50;;
19032;SDS011;9649;51.042;13.804;2023-04-03T02:53:16;10.40;;;1.73;;
19032;SDS011;9649;51.042;13.804;2023-04-03T02:58:19;8.00;;;1.70;;
19032;SDS011;9649;51.042;13.804;2023-04-03T03:03:22;4.20;;;1.60;;
19032;SDS011;9649;51.042;13.804;2023-04-03T03:08:25;4.90;;;1.63;;
19032;SDS011;9649;51.042;13.804;2023-04-03T03:13:28;5.40;;;1.60;;
19032;SDS011;9649;51.042;13.804;2023-04-03T03:18:32;5.17;;;1.40;;
19032;SDS011;9649;51.042;13.804;2023-04-03T03:23:36;8.13;;;1.63;;
19032;SDS011;9649;51.042;13.804;2023-04-03T03:28:39;2.70;;;1.43;;
19032;SDS011;9649;51.042;13.804;2023-04-03T03:33:44;4.03;;;1.30;;
19032;SDS011;9649;51.042;13.804;2023-04-03T03:38:46;10.00;;;1.90;;
19032;SDS011;9649;51.042;13.804;2023-04-03T03:43:49;7.17;;;1.40;;
19032;SDS011;9649;51.042;13.804;2023-04-03T03:48:53;3.10;;;1.30;;
19032;SDS011;9649;51.042;13.804;2023-04-03T03:53:56;6.50;;;1.83;;
19032;SDS011;9649;51.042;13.804;2023-04-03T03:58:58;3.97;;;1.40;;
19032;SDS011;9649;51.042;13.804;2023-04-03T04:04:02;8.53;;;1.80;;
19032;SDS011;9649;51.042;13.804;2023-04-03T04:09:05;5.50;;;1.50;;
19032;SDS011;9649;51.042;13.804;2023-04-03T04:14:08;4.67;;;1.73;;
19032;SDS011;9649;51.042;13.804;2023-04-03T04:19:14;4.97;;;1.33;;
19032;SDS011;9649;51.042;13.804;2023-04-03T04:24:17;6.13;;;1.90;;
19032;SDS011;9649;51.042;13.804;2023-04-03T04:29:20;7.30;;;1.90;;
19032;SDS011;9649;51.042;13.804;2023-04-03T04:34:25;3.63;;;1.43;;
19032;SDS011;9649;51.042;13.804;2023-04-03T04:39:27;3.23;;;1.43;;
19032;SDS011;9649;51.042;13.804;2023-04-03T04:44:30;3.97;;;1.40;;
19032;SDS011;9649;51.042;13.804;2023-04-03T04:49:34;4.27;;;1.57;;
19032;SDS011;9649;51.042;13.804;2023-04-03T04:54:37;8.77;;;1.40;;
19032;SDS011;9649;51.042;13.804;2023-04-03T04:59:40;6.73;;;1.70;;
19032;SDS011;9649;51.042;13.804;2023-04-03T05:04:44;8.43;;;1.90;;
19032;SDS011;9649;51.042;13.804;2023-04-03T05:09:46;5.70;;;1.63;;
19032;SDS011;9649;51.042;13.804;2023-04-03T05:14:49;6.40;;;1.60;;
19032;SDS011;9649;51.042;13.804;2023-04-03T05:19:53;7.73;;;3.20;;
19032;SDS011;9649;51.042;13.804;2023-04-03T05:24:56;6.43;;;2.53;;
19032;SDS011;9649;51.042;13.804;2023-04-03T05:29:59;6.87;;;2.10;;
19032;SDS011;9649;51.042;13.804;2023-04-03T05:35:03;6.60;;;1.90;;
19032;SDS011;9649;51.042;13.804;2023-04-03T05:40:08;8.20;;;1.97;;
19032;SDS011;9649;51.042;13.804;2023-04-03T05:45:11;3.13;;;1.70;;
19032;SDS011;9649;51.042;13.804;2023-04-03T05:50:15;9.87;;;2.00;;
19032;SDS011;9649;51.042;13.804;2023-04-03T05:55:18;6.03;;;2.10;;
19032;SDS011;9649;51.042;13.804;2023-04-03T06:00:21;5.60;;;1.90;;
19032;SDS011;9649;51.042;13.804;2023-04-03T06:05:25;7.87;;;2.33;;
19032;SDS011;9649;51.042;13.804;2023-04-03T06:10:28;5.70;;;1.90;;
19032;SDS011;9649;51.042;13.804;2023-04-03T06:15:31;5.80;;;1.67;;
19032;SDS011;9649;51.042;13.804;2023-04-03T06:20:36;7.33;;;1.73;;
19032;SDS011;9649;51.042;13.804;2023-04-03T06:25:39;5.27;;;2.00;;
19032;SDS011;9649;51.042;13.804;2023-04-03T06:30:43;8.83;;;2.00;;
19032;SDS011;9649;51.042;13.804;2023-04-03T06:35:47;5.90;;;1.97;;
19032;SDS011;9649;51.042;13.804;2023-04-03T06:40:49;8.37;;;2.03;;
19032;SDS011;9649;51.042;13.804;2023-04-03T06:45:52;7.03;;;1.70;;
19032;SDS011;9649;51.042;13.804;2023-04-03T06:50:56;8.33;;;1.80;;
19032;SDS011;9649;51.042;13.804;2023-04-03T06:55:59;5.83;;;1.60;;
19032;SDS011;9649;51.042;13.804;2023-04-03T07:01:02;5.23;;;1.43;;
19032;SDS011;9649;51.042;13.804;2023-04-03T07:06:07;7.40;;;1.77;;
19032;SDS011;9649;51.042;13.804;2023-04-03T07:11:12;6.87;;;1.77;;
19032;SDS011;9649;51.042;13.804;2023-04-03T07:16:15;7.07;;;2.20;;
19032;SDS011;9649;51.042;13.804;2023-04-03T07:21:19;10.27;;;2.00;;
19032;SDS011;9649;51.042;13.804;2023-04-03T07:26:22;5.00;;;1.73;;
19032;SDS011;9649;51.042;13.804;2023-04-03T07:31:25;5.93;;;2.03;;
19032;SDS011;9649;51.042;13.804;2023-04-03T07:36:29;5.43;;;2.20;;
19032;SDS011;9649;51.042;13.804;2023-04-03T07:41:34;4.23;;;1.57;;
19032;SDS011;9649;51.042;13.804;2023-04-03T07:46:37;4.83;;;1.57;;
19032;SDS011;9649;51.042;13.804;2023-04-03T07:51:41;5.80;;;1.83;;
19032;SDS011;9649;51.042;13.804;2023-04-03T07:56:44;6.83;;;1.93;;
19032;SDS011;9649;51.042;13.804;2023-04-03T08:01:46;3.70;;;1.50;;
19032;SDS011;9649;51.042;13.804;2023-04-03T08:06:50;5.43;;;1.47;;
19032;SDS011;9649;51.042;13.804;2023-04-03T08:11:53;5.80;;;1.87;;
19032;SDS011;9649;51.042;13.804;2023-04-03T08:16:56;7.20;;;2.17;;
19032;SDS011;9649;51.042;13.804;2023-04-03T08:22:01;5.43;;;1.70;;
19032;SDS011;9649;51.042;13.804;2023-04-03T08:27:04;8.97;;;2.20;;
19032;SDS011;9649;51.042;13.804;2023-04-03T08:32:08;3.47;;;1.20;;
19032;SDS011;9649;51.042;13.804;2023-04-03T08:37:12;4.57;;;1.47;;
19032;SDS011;9649;51.042;13.804;2023-04-03T08:42:16;6.60;;;1.80;;
19032;SDS011;9649;51.042;13.804;2023-04-03T08:47:35;4.30;;;1.70;;
19032;SDS011;9649;51.042;13.804;2023-04-03T08:52:44;4.53;;;1.73;;
19032;SDS011;9649;51.042;13.804;2023-04-03T08:57:50;6.70;;;2.17;;
19032;SDS011;9649;51.042;13.804;2023-04-03T09:02:57;5.30;;;1.50;;
19032;SDS011;9649;51.042;13.804;2023-04-03T09:08:03;4.47;;;1.63;;
19032;SDS011;9649;51.042;13.804;2023-04-03T09:13:11;6.03;;;1.40;;
19032;SDS011;9649;51.042;13.804;2023-04-03T09:18:23;4.97;;;1.60;;
19032;SDS011;9649;51.042;13.804;2023-04-03T09:23:33;3.77;;;1.20;;
19032;SDS011;9649;51.042;13.804;2023-04-03T09:28:43;4.17;;;1.03;;
19032;SDS011;9649;51.042;13.804;2023-04-03T09:33:50;3.87;;;1.20;;
19032;SDS011;9649;51.042;13.804;2023-04-03T09:39:03;5.00;;;1.30;;
19032;SDS011;9649;51.042;13.804;2023-04-03T09:44:18;4.30;;;1.50;;
19032;SDS011;9649;51.042;13.804;2023-04-03T09:49:23;3.00;;;1.30;;
19032;SDS011;9649;51.042;13.804;2023-04-03T09:54:35;5.50;;;1.57;;
19032;SDS011;9649;51.042;13.804;2023-04-03T09:59:43;3.22;;;1.10;;
19032;SDS011;9649;51.042;13.804;2023-04-03T10:04:48;5.78;;;1.20;;
19032;SDS011;9649;51.042;13.804;2023-04-03T10:10:17;2.97;;;1.15;;
19032;SDS011;9649;51.042;13.804;2023-04-03T10:15:21;1.58;;;1.00;;
19032;SDS011;9649;51.042;13.804;2023-04-03T10:20:30;2.90;;;1.25;;
19032;SDS011;9649;51.042;13.804;2023-04-03T10:25:40;3.53;;;1.30;;
19032;SDS011;9649;51.042;13.804;2023-04-03T10:30:47;2.65;;;1.00;;
19032;SDS011;9649;51.042;13.804;2023-04-03T10:35:59;4.15;;;1.30;;
19032;SDS011;9649;51.042;13.804;2023-04-03T10:41:12;2.53;;;1.10;;
19032;SDS011;9649;51.042;13.804;2023-04-03T10:46:22;3.35;;;1.13;;
19032;SDS011;9649;51.042;13.804;2023-04-03T10:51:33;5.00;;;1.10;;
19032;SDS011;9649;51.042;13.804;2023-04-03T10:56:44;3.42;;;1.08;;
19032;SDS011;9649;51.042;13.804;2023-04-03T11:02:06;4.15;;;1.38;;
19032;SDS011;9649;51.042;13.804;2023-04-03T11:07:15;2.73;;;1.30;;
19032;SDS011;9649;51.042;13.804;2023-04-03T11:12:23;1.80;;;0.93;;
19032;SDS011;9649;51.042;13.804;2023-04-03T11:17:30;2.30;;;1.13;;
19032;SDS011;9649;51.042;13.804;2023-04-03T11:22:39;3.10;;;1.03;;
19032;SDS011;9649;51.042;13.804;2023-04-03T11:27:46;4.03;;;1.27;;
19032;SDS011;9649;51.042;13.804;2023-04-03T11:32:55;3.73;;;1.20;;
19032;SDS011;9649;51.042;13.804;2023-04-03T11:38:10;4.90;;;1.38;;
19032;SDS011;9649;51.042;13.804;2023-04-03T11:43:24;2.28;;;1.30;;
19032;SDS011;9649;51.042;13.804;2023-04-03T11:48:42;2.77;;;1.17;;
19032;SDS011;9649;51.042;13.804;2023-04-03T11:53:52;3.90;;;1.20;;
19032;SDS011;9649;51.042;13.804;2023-04-03T11:59:16;3.08;;;1.08;;
19032;SDS011;9649;51.042;13.804;2023-04-03T12:04:26;2.03;;;0.90;;
19032;SDS011;9649;51.042;13.804;2023-04-03T12:09:34;3.13;;;1.00;;
19032;SDS011;9649;51.042;13.804;2023-04-03T12:14:53;2.00;;;1.33;;
19032;SDS011;9649;51.042;13.804;2023-04-03T12:19:56;2.77;;;1.07;;
19032;SDS011;9649;51.042;13.804;2023-04-03T12:25:00;3.83;;;1.40;;
19032;SDS011;9649;51.042;13.804;2023-04-03T12:30:38;5.43;;;1.30;;
19032;SDS011;9649;51.042;13.804;2023-04-03T12:35:48;5.03;;;1.10;;
19032;SDS011;9649;51.042;13.804;2023-04-03T12:41:11;2.93;;;0.93;;
19032;SDS011;9649;51.042;13.804;2023-04-03T12:46:35;2.87;;;1.13;;
19032;SDS011;9649;51.042;13.804;2023-04-03T12:51:42;2.97;;;1.30;;
19032;SDS011;9649;51.042;13.804;2023-04-03T12:56:47;2.37;;;1.13;;
19032;SDS011;9649;51.042;13.804;2023-04-03T13:01:54;2.47;;;1.10;;
19032;SDS011;9649;51.042;13.804;2023-04-03T13:06:58;3.40;;;1.30;;
19032;SDS011;9649;51.042;13.804;2023-04-03T13:12:02;2.40;;;0.90;;
19032;SDS011;9649;51.042;13.804;2023-04-03T13:17:14;2.93;;;1.20;;
19032;SDS011;9649;51.042;13.804;2023-04-03T13:22:22;2.67;;;1.10;;
19032;SDS011;9649;51.042;13.804;2023-04-03T13:27:29;1.87;;;1.00;;
19032;SDS011;9649;51.042;13.804;2023-04-03T13:32:35;4.80;;;1.17;;
19032;SDS011;9649;51.042;13.804;2023-04-03T13:37:38;2.33;;;1.10;;
19032;SDS011;9649;51.042;13.804;2023-04-03T13:42:41;5.70;;;1.20;;
19032;SDS011;9649;51.042;13.804;2023-04-03T13:47:46;4.83;;;1.20;;
19032;SDS011;9649;51.042;13.804;2023-04-03T13:52:52;3.63;;;1.00;;
19032;SDS011;9649;51.042;13.804;2023-04-03T13:57:57;2.90;;;1.17;;
19032;SDS011;9649;51.042;13.804;2023-04-03T14:03:07;1.90;;;0.90;;
19032;SDS011;9649;51.042;13.804;2023-04-03T14:08:15;4.53;;;1.00;;
19032;SDS011;9649;51.042;13.804;2023-04-03T14:13:22;3.90;;;1.00;;
19032;SDS011;9649;51.042;13.804;2023-04-03T14:18:26;2.60;;;1.10;;
19032;SDS011;9649;51.042;13.804;2023-04-03T14:23:29;5.57;;;1.40;;
19032;SDS011;9649;51.042;13.804;2023-04-03T14:28:32;4.07;;;0.97;;
19032;SDS011;9649;51.042;13.804;2023-04-03T14:33:36;3.30;;;1.53;;
19032;SDS011;9649;51.042;13.804;2023-04-03T14:38:40;4.13;;;1.83;;
19032;SDS011;9649;51.042;13.804;2023-04-03T14:43:43;3.80;;;1.40;;
19032;SDS011;9649;51.042;13.804;2023-04-03T14:48:48;3.93;;;1.23;;
19032;SDS011;9649;51.042;13.804;2023-04-03T14:53:51;3.27;;;1.00;;
19032;SDS011;9649;51.042;13.804;2023-04-03T14:58:55;4.63;;;1.30;;
19032;SDS011;9649;51.042;13.804;2023-04-03T15:04:04;4.17;;;1.40;;
19032;SDS011;9649;51.042;13.804;2023-04-03T15:09:15;3.07;;;1.10;;
19032;SDS011;9649;51.042;13.804;2023-04-03T15:14:22;2.10;;;1.20;;
19032;SDS011;9649;51.042;13.804;2023-04-03T15:19:44;3.17;;;1.30;;
19032;SDS011;9649;51.042;13.804;2023-04-03T15:24:46;4.57;;;1.30;;
19032;SDS011;9649;51.042;13.804;2023-04-03T15:29:49;3.43;;;1.20;;
19032;SDS011;9649;51.042;13.804;2023-04-03T15:34:54;4.67;;;1.30;;
19032;SDS011;9649;51.042;13.804;2023-04-03T15:39:57;6.33;;;1.33;;
19032;SDS011;9649;51.042;13.804;2023-04-03T15:44:59;2.67;;;1.10;;
19032;SDS011;9649;51.042;13.804;2023-04-03T15:50:04;4.10;;;1.20;;
19032;SDS011;9649;51.042;13.804;2023-04-03T15:55:12;2.73;;;1.20;;
19032;SDS011;9649;51.042;13.804;2023-04-03T16:00:15;3.13;;;1.37;;
19032;SDS011;9649;51.042;13.804;2023-04-03T16:05:19;2.63;;;0.90;;
19032;SDS011;9649;51.042;13.804;2023-04-03T16:10:22;3.53;;;1.47;;
19032;SDS011;9649;51.042;13.804;2023-04-03T16:15:26;3.23;;;1.10;;
19032;SDS011;9649;51.042;13.804;2023-04-03T16:20:30;4.27;;;1.50;;
19032;SDS011;9649;51.042;13.804;2023-04-03T16:25:33;6.33;;;1.33;;
19032;SDS011;9649;51.042;13.804;2023-04-03T16:30:36;3.80;;;1.37;;
19032;SDS011;9649;51.042;13.804;2023-04-03T16:35:40;5.37;;;1.40;;
19032;SDS011;9649;51.042;13.804;2023-04-03T16:40:44;2.07;;;1.10;;
19032;SDS011;9649;51.042;13.804;2023-04-03T16:45:47;3.07;;;1.50;;
19032;SDS011;9649;51.042;13.804;2023-04-03T16:50:52;3.33;;;1.40;;
19032;SDS011;9649;51.042;13.804;2023-04-03T16:55:58;3.20;;;1.30;;
19032;SDS011;9649;51.042;13.804;2023-04-03T17:01:08;3.50;;;1.20;;
19032;SDS011;9649;51.042;13.804;2023-04-03T17:06:15;3.53;;;1.00;;
19032;SDS011;9649;51.042;13.804;2023-04-03T17:11:26;3.37;;;0.90;;
19032;SDS011;9649;51.042;13.804;2023-04-03T17:16:32;4.10;;;1.30;;
19032;SDS011;9649;51.042;13.804;2023-04-03T17:21:46;7.33;;;2.53;;
19032;SDS011;9649;51.042;13.804;2023-04-03T17:26:49;4.83;;;1.63;;
19032;SDS011;9649;51.042;13.804;2023-04-03T17:31:55;2.17;;;1.00;;
19032;SDS011;9649;51.042;13.804;2023-04-03T17:37:01;1.67;;;0.93;;
19032;SDS011;9649;51.042;13.804;2023-04-03T17:42:04;2.97;;;1.53;;
19032;SDS011;9649;51.042;13.804;2023-04-03T17:47:08;2.77;;;1.30;;
19032;SDS011;9649;51.042;13.804;2023-04-03T17:52:12;3.13;;;1.30;;
19032;SDS011;9649;51.042;13.804;2023-04-03T17:57:14;2.07;;;1.23;;
19032;SDS011;9649;51.042;13.804;2023-04-03T18:02:17;2.60;;;1.53;;
19032;SDS011;9649;51.042;13.804;2023-04-03T18:07:22;7.10;;;1.40;;
19032;SDS011;9649;51.042;13.804;2023-04-03T18:12:26;4.13;;;1.60;;
19032;SDS011;9649;51.042;13.804;2023-04-03T18:17:29;4.57;;;1.70;;
19032;SDS011;9649;51.042;13.804;2023-04-03T18:22:33;3.20;;;1.50;;
19032;SDS011;9649;51.042;13.804;2023-04-03T18:27:36;3.27;;;1.70;;
19032;SDS011;9649;51.042;13.804;2023-04-03T18:32:39;3.53;;;1.83;;
19032;SDS011;9649;51.042;13.804;2023-04-03T18:37:43;4.57;;;1.77;;
19032;SDS011;9649;51.042;13.804;2023-04-03T18:42:46;4.57;;;2.00;;
19032;SDS011;9649;51.042;13.804;2023-04-03T18:47:48;5.37;;;1.57;;
19032;SDS011;9649;51.042;13.804;2023-04-03T18:52:53;5.30;;;1.50;;
19032;SDS011;9649;51.042;13.804;2023-04-03T18:57:55;3.57;;;1.80;;
19032;SDS011;9649;51.042;13.804;2023-04-03T19:02:58;3.00;;;1.60;;
19032;SDS011;9649;51.042;13.804;2023-04-03T19:08:02;5.63;;;1.90;;
19032;SDS011;9649;51.042;13.804;2023-04-03T19:13:05;3.80;;;1.87;;
19032;SDS011;9649;51.042;13.804;2023-04-03T19:18:08;5.83;;;2.43;;
19032;SDS011;9649;51.042;13.804;2023-04-03T19:23:12;5.23;;;1.90;;
19032;SDS011;9649;51.042;13.804;2023-04-03T19:28:17;3.67;;;1.80;;
19032;SDS011;9649;51.042;13.804;2023-04-03T19:33:19;6.10;;;2.10;;
19032;SDS011;9649;51.042;13.804;2023-04-03T19:38:23;4.90;;;2.03;;
19032;SDS011;9649;51.042;13.804;2023-04-03T19:43:26;4.70;;;2.33;;
19032;SDS011;9649;51.042;13.804;2023-04-03T19:48:29;5.20;;;2.50;;
19032;SDS011;9649;51.042;13.804;2023-04-03T19:53:33;6.30;;;2.43;;
19032;SDS011;9649;51.042;13.804;2023-04-03T19:58:36;5.80;;;2.30;;
19032;SDS011;9649;51.042;13.804;2023-04-03T20:03:39;5.37;;;2.00;;
19032;SDS011;9649;51.042;13.804;2023-04-03T20:08:44;5.83;;;1.77;;
19032;SDS011;9649;51.042;13.804;2023-04-03T20:13:47;4.73;;;1.70;;
19032;SDS011;9649;51.042;13.804;2023-04-03T20:18:50;5.43;;;2.23;;
19032;SDS011;9649;51.042;13.804;2023-04-03T20:23:56;5.90;;;1.93;;
19032;SDS011;9649;51.042;13.804;2023-04-03T20:29:00;4.70;;;2.10;;
19032;SDS011;9649;51.042;13.804;2023-04-03T20:34:03;5.63;;;2.53;;
19032;SDS011;9649;51.042;13.804;2023-04-03T20:39:07;4.97;;;1.90;;
19032;SDS011;9649;51.042;13.804;2023-04-03T20:44:10;5.07;;;1.93;;
19032;SDS011;9649;51.042;13.804;2023-04-03T20:49:13;3.90;;;2.03;;
19032;SDS011;9649;51.042;13.804;2023-04-03T20:54:17;2.77;;;1.70;;
19032;SDS011;9649;51.042;13.804;2023-04-03T20:59:20;4.50;;;2.10;;
19032;SDS011;9649;51.042;13.804;2023-04-03T21:04:26;6.60;;;3.03;;
19032;SDS011;9649;51.042;13.804;2023-04-03T21:20:51;5.33;;;2.20;;
19032;SDS011;9649;51.042;13.804;2023-04-03T21:25:54;4.93;;;2.30;;
19032;SDS011;9649;51.042;13.804;2023-04-03T21:30:57;5.43;;;2.30;;
19032;SDS011;9649;51.042;13.804;2023-04-03T21:36:01;3.97;;;1.90;;
19032;SDS011;9649;51.042;13.804;2023-04-03T21:41:04;5.97;;;2.10;;
19032;SDS011;9649;51.042;13.804;2023-04-03T21:46:07;9.83;;;3.20;;
19032;SDS011;9649;51.042;13.804;2023-04-03T21:51:11;5.33;;;2.13;;
19032;SDS011;9649;51.042;13.804;2023-04-03T21:56:13;7.90;;;2.50;;
19032;SDS011;9649;51.042;13.804;2023-04-03T22:01:17;5.63;;;1.90;;
19032;SDS011;9649;51.042;13.804;2023-04-03T22:06:22;3.33;;;1.97;;
19032;SDS011;9649;51.042;13.804;2023-04-03T22:11:24;6.07;;;1.97;;
19032;SDS011;9649;51.042;13.804;2023-04-03T22:16:29;6.47;;;2.50;;
19032;SDS011;9649;51.042;13.804;2023-04-03T22:21:33;5.27;;;2.07;;
19032;SDS011;9649;51.042;13.804;2023-04-03T22:26:36;4.10;;;2.10;;
19032;SDS011;9649;51.042;13.804;2023-04-03T22:31:40;9.17;;;1.90;;
19032;SDS011;9649;51.042;13.804;2023-04-03T22:36:45;6.30;;;2.10;;
19032;SDS011;9649;51.042;13.804;2023-04-03T22:41:47;6.37;;;1.87;;
19032;SDS011;9649;51.042;13.804;2023-04-03T22:46:50;3.47;;;1.77;;
19032;SDS011;9649;51.042;13.804;2023-04-03T22:51:54;5.10;;;1.70;;
19032;SDS011;9649;51.042;13.804;2023-04-03T22:56:57;5.50;;;1.80;;
19032;SDS011;9649;51.042;13.804;2023-04-03T23:02:00;3.30;;;1.43;;
19032;SDS011;9649;51.042;13.804;2023-04-03T23:07:04;4.00;;;1.70;;
19032;SDS011;9649;51.042;13.804;2023-04-03T23:12:07;3.80;;;1.67;;
19032;SDS011;9649;51.042;13.804;2023-04-03T23:17:10;4.97;;;1.80;;
19032;SDS011;9649;51.042;13.804;2023-04-03T23:22:14;6.17;;;1.73;;
19032;SDS011;9649;51.042;13.804;2023-04-03T23:27:16;4.63;;;2.00;;
19032;SDS011;9649;51.042;13.804;2023-04-03T23:32:19;3.73;;;1.90;;
19032;SDS011;9649;51.042;13.804;2023-04-03T23:37:23;5.63;;;1.83;;
19032;SDS011;9649;51.042;13.804;2023-04-03T23:42:26;3.90;;;2.03;;
19032;SDS011;9649;51.042;13.804;2023-04-03T23:47:28;3.67;;;1.93;;
19032;SDS011;9649;51.042;13.804;2023-04-03T23:52:33;7.77;;;2.30;;
19032;SDS011;9649;51.042;13.804;2023-04-03T23:57:35;2.83;;;1.50;;
